Terminal Aerodrome Forecast
Issued by NWS

Home | Current Version | Previous Version | Text Only | Print | Product List | Glossary Off
Versions: 1 2 3 4 5 6 7 8 9 10 11 12 13 14 15 16

000
FTUS43 KICT 021729
TAFSLN
TAF
KSLN 021729Z 0218/0318 04005KT P6SM BKN200
     FM030600 05004KT P6SM OVC090
     FM031500 09006KT P6SM OVC030=

USA.gov is the U.S. government's official web portal to all federal, state and local government web resources and services.